Time;durP1;ratioP1;P1;durP2;ratioP2;P2;SDS_P1;SDS_P2;PMS_P1;PMS_P2;Temp;Humidity;BMP_temperature;BMP_pressure;BME280_temperature;BME280_humidity;BME280_pressure;Samples;Min_cycle;Max_cycle;Signal;HPM_P1;HPM_P2
2023/07/03 00:01:26;;;;;;;19.23;10.40;;;;;;;16.32;51.41;95392.78;4958819;28;20275;-78
2023/07/03 00:03:51;;;;;;;20.45;11.27;;;;;;;16.33;52.02;95393.59;4979495;28;20205;-78
2023/07/03 00:06:17;;;;;;;20.48;10.90;;;;;;;16.28;51.92;95391.53;4972896;28;20789;-78
2023/07/03 00:08:42;;;;;;;17.83;9.85;;;;;;;16.21;51.99;95390.66;4982232;28;20184;-78
2023/07/03 00:11:08;;;;;;;16.73;9.98;;;;;;;16.15;52.46;95392.22;4951487;28;20572;-79
2023/07/03 00:13:33;;;;;;;18.45;10.93;;;;;;;16.22;52.51;95391.47;4972087;28;20181;-78
2023/07/03 00:15:59;;;;;;;20.40;10.30;;;;;;;16.07;52.81;95387.09;4967574;28;20685;-79
2023/07/03 00:18:25;;;;;;;26.50;11.35;;;;;;;16.04;53.06;95394.50;4943859;28;20211;-80
2023/07/03 00:20:54;;;;;;;19.08;10.60;;;;;;;16.08;52.60;95385.31;4960687;28;20192;-78
2023/07/03 00:23:20;;;;;;;19.83;10.93;;;;;;;16.09;52.69;95389.53;4964702;28;20209;-77
2023/07/03 00:25:46;;;;;;;20.08;10.95;;;;;;;16.01;53.13;95385.22;4971997;28;20337;-78
2023/07/03 00:28:11;;;;;;;18.52;10.80;;;;;;;16.05;53.03;95385.66;4968341;28;20192;-79
2023/07/03 00:30:36;;;;;;;20.00;11.55;;;;;;;15.97;53.00;95381.34;4961486;28;20201;-79
2023/07/03 00:33:02;;;;;;;16.65;10.70;;;;;;;16.11;52.80;95385.72;4957122;28;20195;-78
2023/07/03 00:35:27;;;;;;;19.40;9.88;;;;;;;16.05;52.78;95393.50;4963652;28;20258;-79
2023/07/03 00:37:52;;;;;;;18.95;11.02;;;;;;;16.09;52.64;95387.72;4971420;28;20184;-79
2023/07/03 00:40:18;;;;;;;22.05;11.00;;;;;;;15.85;53.66;95388.88;4970224;28;20188;-78
2023/07/03 00:42:43;;;;;;;19.80;11.02;;;;;;;15.99;53.58;95387.22;4962746;28;20296;-78
2023/07/03 00:45:09;;;;;;;21.98;10.68;;;;;;;15.92;53.85;95386.34;4955830;28;20217;-78
2023/07/03 00:47:34;;;;;;;19.27;11.18;;;;;;;16.07;53.29;95387.09;4963462;28;20265;-79
2023/07/03 00:50:00;;;;;;;21.67;12.00;;;;;;;16.06;53.43;95372.38;4961101;28;20770;-79
2023/07/03 00:52:25;;;;;;;19.48;11.18;;;;;;;16.02;53.82;95376.38;4957533;28;20865;-78
2023/07/03 00:54:52;;;;;;;21.58;11.75;;;;;;;16.13;53.44;95373.25;4964403;28;20662;-77
2023/07/03 00:57:17;;;;;;;22.00;10.27;;;;;;;16.20;53.40;95372.50;4990684;28;20673;-80
2023/07/03 00:59:43;;;;;;;20.58;10.52;;;;;;;16.26;53.19;95364.72;4973529;28;20196;-78
2023/07/03 01:02:15;;;;;;;20.20;11.02;;;;;;;16.41;52.52;95375.94;4966515;28;20193;-77
2023/07/03 01:04:41;;;;;;;21.17;10.75;;;;;;;16.43;52.78;95368.72;4956184;28;20258;-77
2023/07/03 01:07:09;;;;;;;18.75;10.75;;;;;;;16.48;52.63;95373.38;4964781;28;20569;-78
2023/07/03 01:09:40;;;;;;;19.88;11.43;;;;;;;16.47;52.78;95371.75;4971904;28;20180;-78
2023/07/03 01:12:06;;;;;;;18.50;10.65;;;;;;;16.36;53.30;95367.84;4973673;28;20188;-77
2023/07/03 01:14:32;;;;;;;20.77;11.60;;;;;;;16.41;53.10;95378.56;4970518;28;20223;-78
2023/07/03 01:16:58;;;;;;;20.23;11.43;;;;;;;16.26;53.26;95361.31;4955530;28;20856;-79
2023/07/03 01:19:33;;;;;;;19.45;11.48;;;;;;;16.06;54.11;95377.59;4948940;28;20189;-79
2023/07/03 01:22:04;;;;;;;20.60;11.45;;;;;;;16.13;54.18;95368.00;4933673;28;20825;-78
2023/07/03 01:24:32;;;;;;;25.65;11.73;;;;;;;16.35;53.72;95370.66;4960509;28;20213;-78
2023/07/03 01:27:00;;;;;;;23.95;11.73;;;;;;;16.37;53.19;95368.66;4968173;28;20797;-79
2023/07/03 01:29:26;;;;;;;26.30;12.25;;;;;;;16.38;53.30;95365.03;4945863;28;20662;-77
2023/07/03 01:31:51;;;;;;;23.27;13.27;;;;;;;16.45;52.84;95367.72;4979117;28;20199;-76
2023/07/03 01:34:17;;;;;;;20.85;11.60;;;;;;;16.26;53.88;95367.34;4970096;28;20177;-78
2023/07/03 01:36:43;;;;;;;21.80;11.90;;;;;;;16.40;53.32;95369.06;4973822;28;20191;-78
2023/07/03 01:39:08;;;;;;;19.75;11.60;;;;;;;16.38;53.18;95372.91;4971200;28;20227;-78
2023/07/03 01:41:34;;;;;;;23.52;11.10;;;;;;;16.35;53.41;95370.66;4961590;28;20535;-78
2023/07/03 01:43:59;;;;;;;24.48;11.68;;;;;;;16.36;53.48;95367.84;4959899;28;20585;-78
2023/07/03 01:46:25;;;;;;;23.52;12.25;;;;;;;16.12;53.78;95376.88;4951676;28;20212;-78
2023/07/03 01:48:50;;;;;;;18.52;11.20;;;;;;;16.23;53.95;95372.13;4975032;28;20242;-78
2023/07/03 01:51:25;;;;;;;22.92;11.23;;;;;;;16.26;53.80;95374.41;4971228;28;20177;-79
2023/07/03 01:53:57;;;;;;;20.10;11.55;;;;;;;16.28;53.52;95360.09;4956102;28;20185;-76
2023/07/03 01:56:25;;;;;;;20.65;11.85;;;;;;;16.27;53.96;95368.16;4960276;28;20219;-79
2023/07/03 01:58:55;;;;;;;20.38;11.27;;;;;;;16.45;53.24;95368.53;4983811;28;20307;-79
2023/07/03 02:01:24;;;;;;;19.63;10.90;;;;;;;16.49;53.03;95359.28;4972801;28;20184;-79
2023/07/03 02:03:58;;;;;;;22.13;11.55;;;;;;;16.47;53.15;95357.84;4970654;28;20208;-79
2023/07/03 02:06:34;;;;;;;19.33;11.55;;;;;;;16.45;53.48;95355.44;4953445;28;20209;-78
2023/07/03 02:09:01;;;;;;;23.85;11.40;;;;;;;16.49;53.56;95351.41;4973647;28;20554;-79
2023/07/03 02:11:27;;;;;;;16.17;10.68;;;;;;;16.52;53.56;95358.09;4969129;28;20187;-79
2023/07/03 02:13:52;;;;;;;20.88;11.10;;;;;;;16.61;53.00;95355.16;4971877;28;20216;-77
2023/07/03 02:16:18;;;;;;;21.05;11.35;;;;;;;16.47;53.52;95355.22;4972840;28;20286;-79
2023/07/03 02:18:43;;;;;;;18.13;11.68;;;;;;;16.50;53.18;95353.03;4966435;28;20268;-78
2023/07/03 02:21:09;;;;;;;22.13;11.30;;;;;;;16.54;53.38;95356.91;4974303;28;20236;-79
2023/07/03 02:23:34;;;;;;;17.45;11.38;;;;;;;16.63;53.02;95353.16;4945748;28;20213;-79
2023/07/03 02:26:00;;;;;;;17.80;10.88;;;;;;;16.62;53.09;95354.16;4968890;28;20219;-77
2023/07/03 02:28:25;;;;;;;21.27;10.90;;;;;;;16.74;52.89;95353.66;4957155;28;20184;-78
2023/07/03 02:30:51;;;;;;;22.17;11.10;;;;;;;16.57;53.12;95361.78;4982686;28;20769;-79
2023/07/03 02:33:16;;;;;;;22.00;10.45;;;;;;;16.51;53.88;95362.50;4970794;28;20188;-78
2023/07/03 02:35:41;;;;;;;21.95;11.70;;;;;;;16.65;53.30;95361.63;4970060;28;20697;-77
2023/07/03 02:38:08;;;;;;;21.75;11.23;;;;;;;16.61;53.17;95356.97;4979051;28;20213;-78
2023/07/03 02:40:34;;;;;;;17.48;11.02;;;;;;;16.75;53.07;95357.91;4973068;28;20197;-79
2023/07/03 02:43:00;;;;;;;18.50;11.57;;;;;;;16.70;52.95;95355.88;4970553;28;20176;-78
2023/07/03 02:45:25;;;;;;;21.30;10.75;;;;;;;16.65;53.42;95359.00;4945539;28;20290;-78
2023/07/03 02:47:50;;;;;;;18.02;11.05;;;;;;;16.67;53.01;95353.56;4959261;28;20189;-78
2023/07/03 02:50:16;;;;;;;19.55;11.75;;;;;;;16.60;52.81;95353.50;4982655;28;20188;-78
2023/07/03 02:52:41;;;;;;;21.83;11.15;;;;;;;16.32;53.79;95352.66;4972704;28;20191;-77
2023/07/03 02:55:07;;;;;;;20.92;10.98;;;;;;;16.61;53.52;95347.31;4970404;28;20209;-78
2023/07/03 02:57:32;;;;;;;19.20;10.60;;;;;;;16.61;53.73;95347.31;4962228;28;20706;-77
2023/07/03 02:59:57;;;;;;;20.35;11.07;;;;;;;16.51;53.48;95346.78;4957098;28;20204;-79
2023/07/03 03:02:23;;;;;;;22.85;12.02;;;;;;;16.56;53.69;95348.84;4962890;28;20185;-79
2023/07/03 03:04:48;;;;;;;19.63;10.82;;;;;;;16.50;53.97;95337.31;4986046;28;20224;-78
2023/07/03 03:07:14;;;;;;;18.95;10.88;;;;;;;16.71;53.32;95339.13;4972490;28;20196;-77
2023/07/03 03:09:40;;;;;;;19.02;10.95;;;;;;;16.66;53.48;95334.41;4981961;28;20325;-79
2023/07/03 03:12:07;;;;;;;19.80;11.45;;;;;;;16.73;53.56;95336.31;4958899;28;20177;-79
2023/07/03 03:14:32;;;;;;;17.88;10.45;;;;;;;16.77;52.87;95342.78;4977264;28;20295;-78
2023/07/03 03:16:58;;;;;;;22.13;11.10;;;;;;;16.66;53.33;95339.66;4968365;28;20255;-79
2023/07/03 03:19:23;;;;;;;19.77;11.57;;;;;;;16.67;53.30;95343.91;4956818;28;20219;-78
2023/07/03 03:21:49;;;;;;;18.80;10.63;;;;;;;16.68;53.56;95334.22;4967382;28;20196;-78
2023/07/03 03:24:16;;;;;;;18.48;11.10;;;;;;;16.58;53.92;95339.78;4970123;28;20213;-78
2023/07/03 03:26:41;;;;;;;17.85;11.23;;;;;;;16.75;53.33;95339.56;4971197;28;20188;-79
2023/07/03 03:29:06;;;;;;;16.42;10.63;;;;;;;16.70;53.73;95340.94;4965719;28;20243;-77
2023/07/03 03:31:32;;;;;;;19.27;11.90;;;;;;;16.65;54.03;95334.59;4941518;28;20189;-78
2023/07/03 03:33:57;;;;;;;19.23;11.10;;;;;;;16.72;53.89;95340.75;4962533;28;20185;-79
2023/07/03 03:36:22;;;;;;;21.08;11.57;;;;;;;16.67;54.00;95338.66;4968630;28;20634;-77
2023/07/03 03:38:47;;;;;;;23.13;11.80;;;;;;;16.75;54.24;95340.38;4972332;28;20604;-78
2023/07/03 03:41:13;;;;;;;19.08;12.15;;;;;;;16.48;54.71;95339.31;4965649;28;20227;-78
2023/07/03 03:43:38;;;;;;;26.13;12.10;;;;;;;16.52;54.83;95340.56;4957737;28;20213;-78
2023/07/03 03:46:03;;;;;;;21.52;11.13;;;;;;;16.57;54.64;95337.38;4976313;28;20208;-79
2023/07/03 03:48:30;;;;;;;21.52;11.32;;;;;;;16.67;54.35;95338.66;4966483;28;20188;-77
2023/07/03 03:50:56;;;;;;;21.00;11.82;;;;;;;16.53;55.20;95342.19;4972737;28;20191;-78
2023/07/03 03:53:21;;;;;;;19.70;11.25;;;;;;;16.74;54.18;95343.19;4966811;28;20185;-77
2023/07/03 03:55:50;;;;;;;19.70;11.15;;;;;;;16.74;54.72;95345.81;4958171;28;20224;-78
2023/07/03 03:58:16;;;;;;;22.02;13.00;;;;;;;16.74;54.53;95349.22;4957015;28;20666;-80
2023/07/03 04:00:42;;;;;;;17.70;11.25;;;;;;;16.76;54.56;95344.59;4981691;28;20244;-80
2023/07/03 04:03:08;;;;;;;21.65;11.90;;;;;;;16.80;54.50;95343.22;4956841;28;20185;-79
2023/07/03 04:05:33;;;;;;;19.75;10.95;;;;;;;16.81;54.58;95342.22;4976520;28;20303;-78
2023/07/03 04:07:58;;;;;;;19.95;12.00;;;;;;;16.79;54.58;95346.84;4967240;28;20191;-79
2023/07/03 04:10:24;;;;;;;21.42;11.20;;;;;;;16.86;54.84;95352.94;4986299;28;20618;-79
2023/07/03 04:12:49;;;;;;;17.95;11.18;;;;;;;16.86;54.79;95347.69;4967280;28;20208;-79
2023/07/03 04:15:14;;;;;;;22.73;11.23;;;;;;;16.83;54.64;95344.66;4959251;28;20212;-80
2023/07/03 04:17:40;;;;;;;18.42;11.13;;;;;;;16.90;54.79;95345.53;4960044;28;20634;-78
2023/07/03 04:20:07;;;;;;;21.60;11.15;;;;;;;16.87;55.01;95349.34;4965002;28;20197;-80
2023/07/03 04:22:33;;;;;;;19.35;10.90;;;;;;;16.91;54.60;95347.13;4956113;28;20188;-80
2023/07/03 04:24:58;;;;;;;21.08;11.10;;;;;;;16.93;54.61;95360.88;4983305;28;20220;-78
2023/07/03 04:27:24;;;;;;;21.52;11.63;;;;;;;17.03;54.58;95355.28;4945668;28;20634;-78
2023/07/03 04:29:49;;;;;;;20.13;11.48;;;;;;;16.97;54.88;95360.31;4975244;28;20205;-79
2023/07/03 04:32:14;;;;;;;20.08;10.88;;;;;;;17.13;54.46;95364.41;4971173;28;20220;-81
2023/07/03 04:34:40;;;;;;;20.98;10.95;;;;;;;17.15;54.47;95369.50;4965162;28;20281;-81
2023/07/03 04:37:06;;;;;;;19.55;11.52;;;;;;;17.07;54.64;95375.69;4962625;28;20187;-82
2023/07/03 04:39:31;;;;;;;21.83;11.02;;;;;;;17.12;54.49;95377.72;4951775;28;20181;-82
2023/07/03 04:42:00;;;;;;;20.23;11.48;;;;;;;17.04;55.23;95380.50;4958664;28;20184;-81
2023/07/03 04:44:28;;;;;;;17.92;10.88;;;;;;;17.18;54.73;95374.34;4964931;28;20212;-81
2023/07/03 04:46:56;;;;;;;16.85;10.27;;;;;;;17.25;54.06;95373.41;4955892;28;20184;-81
2023/07/03 04:49:26;;;;;;;19.63;10.60;;;;;;;17.31;54.22;95381.47;4958288;28;20181;-80
2023/07/03 04:51:52;;;;;;;17.52;10.15;;;;;;;17.31;53.86;95378.84;4950860;28;20542;-81
2023/07/03 04:54:19;;;;;;;19.38;11.25;;;;;;;17.18;54.83;95382.22;4960000;28;20216;-80
2023/07/03 04:56:44;;;;;;;17.42;10.60;;;;;;;17.35;54.00;95378.28;4946597;28;20623;-83
2023/07/03 04:59:10;;;;;;;17.25;10.05;;;;;;;17.38;54.13;95382.34;4986931;28;20189;-83
2023/07/03 05:01:36;;;;;;;18.15;10.50;;;;;;;17.37;54.59;95385.97;4963605;28;20737;-82
2023/07/03 05:04:01;;;;;;;22.08;10.95;;;;;;;17.35;54.22;95383.53;4964316;28;20204;-82
2023/07/03 05:06:26;;;;;;;21.10;10.75;;;;;;;17.49;54.11;95385.25;4961907;28;20201;-82
2023/07/03 05:08:52;;;;;;;17.13;10.30;;;;;;;17.55;54.11;95384.44;4962617;28;20622;-84
2023/07/03 05:11:17;;;;;;;20.42;10.73;;;;;;;17.83;53.58;95384.41;4968405;28;20193;-82
2023/07/03 05:13:42;;;;;;;19.48;10.10;;;;;;;17.96;52.96;95382.84;4959529;28;20220;-82
2023/07/03 05:16:08;;;;;;;21.98;10.75;;;;;;;18.67;51.10;95381.38;4962457;28;20356;-83
2023/07/03 05:18:33;;;;;;;17.38;10.13;;;;;;;18.68;50.49;95387.47;4980910;28;20688;-82
2023/07/03 05:20:58;;;;;;;17.38;9.20;;;;;;;18.80;50.24;95390.28;4968118;28;20199;-82
2023/07/03 05:23:24;;;;;;;16.67;9.15;;;;;;;18.88;50.76;95387.47;4942107;28;20917;-83
2023/07/03 05:25:49;;;;;;;16.67;9.63;;;;;;;18.77;50.90;95391.50;4980841;28;20209;-83
2023/07/03 05:28:14;;;;;;;16.02;10.43;;;;;;;18.77;50.90;95390.69;4978159;28;20173;-82
2023/07/03 05:30:40;;;;;;;16.80;9.80;;;;;;;18.92;50.29;95396.56;4951797;28;20216;-82
2023/07/03 05:33:05;;;;;;;19.30;9.55;;;;;;;18.55;50.30;95400.56;4951328;29;20184;-82
2023/07/03 05:35:30;;;;;;;20.70;10.68;;;;;;;18.67;50.75;95405.06;4960337;28;20189;-83
2023/07/03 05:37:56;;;;;;;18.42;9.77;;;;;;;19.11;49.19;95400.22;4971900;28;20555;-84
2023/07/03 05:40:22;;;;;;;17.85;9.73;;;;;;;19.16;49.34;95410.91;4956488;28;20592;-84
2023/07/03 05:42:47;;;;;;;21.02;10.75;;;;;;;19.44;49.39;95400.16;4985466;28;20187;-83
2023/07/03 05:45:12;;;;;;;21.65;10.68;;;;;;;19.65;49.32;95409.66;4966986;28;20251;-83
2023/07/03 05:47:38;;;;;;;14.90;10.38;;;;;;;19.56;49.03;95408.22;4965255;28;20216;-83
2023/07/03 05:50:03;;;;;;;22.90;10.50;;;;;;;19.18;49.89;95412.34;4940036;28;20192;-83
2023/07/03 05:52:29;;;;;;;18.75;10.20;;;;;;;19.37;49.19;95410.72;4947894;28;20187;-84
2023/07/03 05:54:54;;;;;;;15.82;9.73;;;;;;;19.74;49.14;95406.59;4951014;28;20202;-84
2023/07/03 05:57:20;;;;;;;13.80;9.43;;;;;;;19.61;48.88;95406.59;4967120;28;20189;-83
2023/07/03 05:59:46;;;;;;;16.88;8.93;;;;;;;19.94;47.78;95422.31;4977664;28;20540;-84
2023/07/03 06:02:13;;;;;;;20.27;9.45;;;;;;;19.92;47.04;95419.09;4965938;28;20535;-83
2023/07/03 06:04:38;;;;;;;18.48;9.20;;;;;;;19.68;47.78;95432.94;4959541;28;20233;-78
2023/07/03 06:07:04;;;;;;;19.38;9.60;;;;;;;19.59;48.01;95416.56;4980580;28;20372;-79
2023/07/03 06:09:30;;;;;;;22.00;8.93;;;;;;;19.72;47.79;95421.00;4984946;28;20235;-78
2023/07/03 06:11:55;;;;;;;17.63;8.85;;;;;;;20.03;48.20;95425.53;4987218;28;20244;-79
2023/07/03 06:14:22;;;;;;;18.63;8.52;;;;;;;20.12;48.07;95424.28;4985033;28;20262;-79
2023/07/03 06:16:49;;;;;;;24.35;9.57;;;;;;;20.16;47.04;95429.97;4971232;28;20204;-78
2023/07/03 06:19:16;;;;;;;16.17;8.98;;;;;;;20.24;47.10;95438.44;4956099;28;20246;-78
2023/07/03 06:21:42;;;;;;;17.80;9.23;;;;;;;20.11;47.08;95448.22;4994560;28;20272;-78
2023/07/03 06:24:09;;;;;;;15.88;8.63;;;;;;;20.36;47.25;95444.66;4960455;28;20750;-78
2023/07/03 06:26:35;;;;;;;20.65;8.98;;;;;;;20.47;46.39;95451.13;4973496;28;20220;-84
2023/07/03 06:29:01;;;;;;;16.88;9.07;;;;;;;20.86;45.76;95451.91;4971635;28;20192;-79
2023/07/03 06:31:26;;;;;;;20.75;9.05;;;;;;;21.21;44.96;95453.06;4932851;28;20184;-78
2023/07/03 06:33:52;;;;;;;18.63;9.60;;;;;;;21.54;44.74;95449.31;4967240;28;20188;-78
2023/07/03 06:36:21;;;;;;;22.17;9.18;;;;;;;21.46;44.82;95457.53;4970127;28;20212;-78
2023/07/03 06:38:50;;;;;;;26.65;9.35;;;;;;;21.29;44.57;95459.09;4967326;28;20200;-77
2023/07/03 06:41:16;;;;;;;19.20;9.75;;;;;;;21.61;44.39;95454.56;4967602;28;20198;-76
2023/07/03 06:43:41;;;;;;;20.92;10.50;;;;;;;21.68;44.65;95469.31;4970913;28;20185;-77
2023/07/03 06:46:06;;;;;;;19.27;9.23;;;;;;;21.76;44.09;95463.75;4968890;28;20215;-77
2023/07/03 06:48:31;;;;;;;16.13;9.38;;;;;;;22.38;42.80;95466.34;4970731;28;20214;-77
2023/07/03 06:51:05;;;;;;;18.90;9.20;;;;;;;22.21;42.98;95466.13;4973011;28;20213;-77
2023/07/03 06:53:30;;;;;;;18.10;9.15;;;;;;;22.43;42.34;95470.94;4968005;28;20247;-76
2023/07/03 06:55:57;;;;;;;14.68;9.10;;;;;;;22.37;42.86;95466.56;4957614;28;20693;-77
2023/07/03 06:58:22;;;;;;;17.02;8.40;;;;;;;22.27;42.89;95467.91;4975651;28;20228;-77
2023/07/03 07:00:48;;;;;;;17.92;8.70;;;;;;;22.45;43.07;95468.91;4971122;28;20222;-76
2023/07/03 07:03:13;;;;;;;15.98;9.18;;;;;;;22.12;43.84;95464.00;4965141;28;20204;-77
2023/07/03 07:05:38;;;;;;;16.70;9.68;;;;;;;22.35;44.10;95472.06;4939642;28;20224;-77
2023/07/03 07:08:04;;;;;;;17.45;10.00;;;;;;;21.77;45.22;95475.13;4961790;28;21090;-77
2023/07/03 07:10:29;;;;;;;23.88;10.68;;;;;;;22.22;43.94;95472.22;4969128;28;20200;-77
2023/07/03 07:12:54;;;;;;;18.40;9.73;;;;;;;22.76;43.23;95476.59;4984792;28;20666;-77
2023/07/03 07:15:20;;;;;;;18.23;10.00;;;;;;;22.74;42.83;95473.38;4966583;28;20218;-78
2023/07/03 07:17:45;;;;;;;18.77;9.63;;;;;;;23.08;41.93;95479.84;4936409;28;20685;-78
2023/07/03 07:20:11;;;;;;;17.70;9.40;;;;;;;23.93;40.49;95479.44;4964608;28;20240;-77
2023/07/03 07:22:36;;;;;;;18.38;10.13;;;;;;;23.11;40.84;95486.53;4964691;28;20688;-78
2023/07/03 07:25:01;;;;;;;16.00;10.15;;;;;;;22.54;43.59;95481.59;4981325;28;20220;-78
2023/07/03 07:27:27;;;;;;;17.60;9.35;;;;;;;23.49;41.37;95482.66;4956897;28;20195;-77
2023/07/03 07:29:52;;;;;;;19.52;9.38;;;;;;;23.22;42.10;95483.06;4975293;28;20201;-76
2023/07/03 07:32:17;;;;;;;18.55;10.30;;;;;;;22.03;44.49;95479.34;4963498;28;20290;-77
2023/07/03 07:34:43;;;;;;;20.42;10.18;;;;;;;22.50;43.27;95482.25;4968331;28;20211;-81
2023/07/03 07:37:08;;;;;;;16.70;9.27;;;;;;;21.93;44.83;95484.31;4968756;28;20211;-78
2023/07/03 07:39:33;;;;;;;14.10;9.02;;;;;;;21.82;44.58;95487.69;4937459;28;20267;-77
2023/07/03 07:41:59;;;;;;;16.30;9.23;;;;;;;21.13;46.24;95494.75;4974194;28;20188;-77
2023/07/03 07:44:26;;;;;;;21.38;9.05;;;;;;;21.09;46.35;95488.28;4968909;28;20681;-78
2023/07/03 07:46:51;;;;;;;17.95;9.05;;;;;;;20.74;46.68;95490.53;4984586;28;20279;-78
2023/07/03 07:49:17;;;;;;;15.95;8.57;;;;;;;20.58;46.88;95487.41;4980360;28;20275;-77
2023/07/03 07:51:42;;;;;;;17.60;8.48;;;;;;;21.27;45.54;95496.28;4961862;28;20182;-77
2023/07/03 07:54:07;;;;;;;17.15;7.95;;;;;;;21.69;44.62;95492.06;4962632;28;20239;-78
2023/07/03 07:56:33;;;;;;;17.23;8.20;;;;;;;22.03;43.59;95487.25;4977125;28;20661;-77
2023/07/03 07:58:58;;;;;;;19.58;8.27;;;;;;;22.13;43.25;95486.78;4965112;28;20200;-77
2023/07/03 08:01:23;;;;;;;19.92;8.68;;;;;;;22.97;42.04;95482.44;4957144;28;20195;-77
2023/07/03 08:03:49;;;;;;;16.60;8.23;;;;;;;23.87;40.11;95488.34;4964426;28;20519;-85
2023/07/03 08:06:15;;;;;;;15.48;8.05;;;;;;;23.74;40.16;95496.53;4985912;28;20207;-84
2023/07/03 08:08:40;;;;;;;20.90;8.52;;;;;;;24.13;38.42;95483.59;4937418;28;20195;-84
2023/07/03 08:11:08;;;;;;;16.42;8.15;;;;;;;23.10;40.71;95487.56;4941865;28;20187;-86
2023/07/03 08:13:34;;;;;;;16.75;8.20;;;;;;;23.10;40.14;95487.56;4962266;28;20214;-85
2023/07/03 08:16:02;;;;;;;16.83;8.18;;;;;;;23.11;40.88;95487.31;4968664;28;20224;-85
2023/07/03 08:18:28;;;;;;;15.90;8.48;;;;;;;23.56;40.00;95484.16;4986841;28;20184;-86
2023/07/03 08:20:54;;;;;;;18.23;8.50;;;;;;;23.91;38.91;95497.44;4988167;28;20181;-84
2023/07/03 08:23:20;;;;;;;12.23;7.90;;;;;;;23.79;39.19;95488.69;4962496;28;20271;-85
2023/07/03 08:25:53;;;;;;;14.52;8.45;;;;;;;23.63;39.22;95500.00;4951056;28;20215;-86
2023/07/03 08:28:19;;;;;;;18.27;7.82;;;;;;;23.28;40.01;95492.78;4949857;28;20188;-85
2023/07/03 08:30:45;;;;;;;12.82;7.20;;;;;;;23.13;40.62;95495.03;4952257;28;20250;-76
2023/07/03 08:33:12;;;;;;;20.25;8.60;;;;;;;22.80;41.39;95487.56;4965915;28;20180;-77
2023/07/03 08:35:37;;;;;;;17.30;8.48;;;;;;;22.48;41.09;95492.25;4954459;28;20575;-78
2023/07/03 08:38:02;;;;;;;14.75;8.15;;;;;;;22.06;41.25;95492.91;4944053;28;20219;-76
2023/07/03 08:40:28;;;;;;;17.30;7.80;;;;;;;21.94;42.50;95496.50;4966853;28;20215;-76
2023/07/03 08:42:59;;;;;;;17.63;7.65;;;;;;;22.41;42.02;95494.97;4939004;28;20575;-77
2023/07/03 08:45:38;;;;;;;21.65;8.93;;;;;;;22.31;41.68;95492.84;4947548;28;20219;-76
2023/07/03 08:48:11;;;;;;;19.75;8.50;;;;;;;22.61;41.47;95492.06;4967425;28;20184;-77
2023/07/03 08:50:37;;;;;;;16.48;7.30;;;;;;;22.41;41.38;95496.81;4968631;28;20193;-77
2023/07/03 08:53:03;;;;;;;15.23;7.13;;;;;;;22.08;42.03;95490.06;4966249;28;20219;-77
2023/07/03 08:55:40;;;;;;;11.43;6.45;;;;;;;21.99;41.37;95491.34;4941472;28;20209;-77
2023/07/03 08:58:06;;;;;;;14.63;6.72;;;;;;;22.02;41.62;95490.94;4942843;28;20271;-76
2023/07/03 09:00:36;;;;;;;13.45;6.47;;;;;;;21.78;41.50;95490.75;4969721;28;20322;-75
2023/07/03 09:03:15;;;;;;;12.48;6.00;;;;;;;21.23;41.94;95481.88;4969575;28;20578;-77
2023/07/03 09:06:21;;;;;;;14.98;6.75;;;;;;;21.87;41.56;95493.94;4959450;28;20216;-76
2023/07/03 09:08:46;;;;;;;15.32;6.32;;;;;;;21.30;41.47;95489.78;4837734;29;20193;-77
2023/07/03 09:11:13;;;;;;;12.90;5.68;;;;;;;21.72;40.46;95488.19;4950234;28;20216;-76
2023/07/03 09:13:43;;;;;;;12.40;5.82;;;;;;;22.65;40.06;95489.81;4958141;28;20188;-76
2023/07/03 09:16:12;;;;;;;15.02;5.80;;;;;;;22.69;38.28;95489.13;4962301;28;20224;-76
2023/07/03 09:19:04;;;;;;;10.57;5.03;;;;;;;23.53;38.10;95483.81;4967746;28;20577;-76
2023/07/03 09:21:30;;;;;;;13.43;5.55;;;;;;;23.76;37.13;95486.50;4954484;28;20232;-79
2023/07/03 09:24:27;;;;;;;10.82;5.72;;;;;;;23.67;38.17;95487.88;4971566;28;20220;-77
2023/07/03 09:26:59;;;;;;;14.23;5.50;;;;;;;23.68;36.72;95482.38;4957896;28;20197;-75
2023/07/03 09:29:25;;;;;;;12.73;6.10;;;;;;;23.91;36.73;95486.03;4948361;28;20212;-76
2023/07/03 09:31:52;;;;;;;14.68;6.18;;;;;;;23.21;37.25;95486.78;4954420;28;20192;-77
2023/07/03 09:34:19;;;;;;;15.45;6.78;;;;;;;23.30;37.20;95489.91;4977634;28;20212;-77
2023/07/03 09:36:44;;;;;;;27.85;6.75;;;;;;;23.56;37.31;95488.66;4958397;28;20198;-77
2023/07/03 09:39:12;;;;;;;13.13;5.68;;;;;;;23.71;37.37;95486.38;4968258;28;20219;-77
2023/07/03 09:41:37;;;;;;;9.63;5.78;;;;;;;23.58;37.97;95495.31;4957509;28;20186;-76
2023/07/03 09:44:13;;;;;;;12.63;5.93;;;;;;;23.14;38.67;95496.66;4944661;28;20216;-77
2023/07/03 09:46:39;;;;;;;13.55;6.15;;;;;;;23.48;37.37;95486.34;4950910;28;20236;-77
2023/07/03 09:49:08;;;;;;;11.70;5.30;;;;;;;23.76;37.63;95490.97;4950221;28;20492;-76
2023/07/03 09:51:36;;;;;;;11.10;5.75;;;;;;;24.01;37.56;95495.00;4941868;28;20188;-76
2023/07/03 09:54:06;;;;;;;16.00;6.22;;;;;;;23.60;36.91;95495.16;4934782;28;20663;-77
2023/07/03 09:56:32;;;;;;;11.30;5.57;;;;;;;23.12;37.41;95502.19;4954792;28;20215;-77
2023/07/03 09:59:03;;;;;;;12.60;5.10;;;;;;;23.12;37.88;95504.03;4977552;28;20231;-76
2023/07/03 10:01:31;;;;;;;14.77;4.72;;;;;;;22.67;37.44;95509.72;4951442;28;20195;-77
2023/07/03 10:04:05;;;;;;;7.38;3.90;;;;;;;22.68;37.35;95519.28;4959506;28;20740;-77
2023/07/03 10:06:30;;;;;;;7.72;4.53;;;;;;;22.74;37.92;95517.56;4950507;28;20553;-82
2023/07/03 10:09:00;;;;;;;7.55;4.13;;;;;;;23.11;37.84;95524.41;4990920;28;20196;-78
2023/07/03 10:11:37;;;;;;;9.90;5.07;;;;;;;23.14;37.53;95523.13;4957360;28;20189;-77
2023/07/03 10:14:03;;;;;;;12.02;5.20;;;;;;;22.71;38.76;95524.13;4966358;28;20705;-78
2023/07/03 10:16:30;;;;;;;9.38;5.45;;;;;;;22.49;39.70;95530.91;4983930;28;20248;-78
2023/07/03 10:18:57;;;;;;;12.13;6.40;;;;;;;22.53;40.25;95532.09;4949398;28;20189;-76
2023/07/03 10:21:23;;;;;;;11.18;5.80;;;;;;;22.82;39.84;95525.22;4961795;28;20194;-78
2023/07/03 10:23:48;;;;;;;12.52;6.25;;;;;;;23.15;39.38;95524.78;4982694;28;20197;-79
2023/07/03 10:26:24;;;;;;;10.50;5.47;;;;;;;23.18;39.61;95530.41;4970706;28;20217;-79
2023/07/03 10:28:57;;;;;;;14.80;6.30;;;;;;;22.70;40.52;95533.09;4975930;28;20195;-77
2023/07/03 10:31:39;;;;;;;13.65;6.43;;;;;;;22.73;39.89;95532.66;4972332;28;20179;-78
2023/07/03 10:34:10;;;;;;;13.38;6.90;;;;;;;23.06;40.53;95536.72;4984415;28;20217;-79
2023/07/03 10:36:37;;;;;;;11.38;6.32;;;;;;;22.76;40.10;95537.50;4965094;28;20671;-79
2023/07/03 10:39:05;;;;;;;13.63;6.57;;;;;;;22.39;41.85;95546.50;4965837;28;20188;-77
2023/07/03 10:41:46;;;;;;;16.83;6.40;;;;;;;22.48;41.86;95547.81;4980736;28;20550;-78
2023/07/03 10:44:16;;;;;;;13.95;5.95;;;;;;;22.54;41.27;95549.59;4956803;28;20212;-79
2023/07/03 10:46:45;;;;;;;17.02;6.10;;;;;;;22.59;41.79;95552.38;4978641;28;20189;-78
2023/07/03 10:49:29;;;;;;;14.32;7.28;;;;;;;23.09;40.30;95546.88;4967988;28;20185;-78
2023/07/03 10:52:02;;;;;;;11.98;6.95;;;;;;;22.82;40.90;95552.50;4975967;28;20184;-77
2023/07/03 10:54:36;;;;;;;12.65;6.07;;;;;;;23.07;40.46;95541.78;4976267;28;20205;-78
2023/07/03 10:57:04;;;;;;;13.90;6.85;;;;;;;22.76;40.67;95541.97;4983470;28;20192;-78
2023/07/03 10:59:34;;;;;;;18.20;6.50;;;;;;;22.35;42.02;95551.41;4937851;28;20208;-86
2023/07/03 11:02:17;;;;;;;13.65;5.93;;;;;;;22.27;42.49;95552.53;4971981;28;20670;-86
2023/07/03 11:04:52;;;;;;;12.65;6.68;;;;;;;21.95;43.10;95559.75;4970320;28;20248;-87
2023/07/03 11:07:49;;;;;;;12.20;6.28;;;;;;;21.76;43.05;95553.63;4966533;28;20195;-86
2023/07/03 11:10:22;;;;;;;12.18;5.90;;;;;;;21.47;44.12;95562.19;4976492;28;20212;-87
2023/07/03 11:13:16;;;;;;;11.30;5.15;;;;;;;21.52;44.22;95549.13;4949328;28;20721;-86
2023/07/03 11:16:09;;;;;;;12.13;5.15;;;;;;;21.61;44.64;95562.88;4965841;28;20740;-86
2023/07/03 11:18:48;;;;;;;14.20;5.07;;;;;;;22.33;42.23;95564.06;4953543;28;20187;-85
2023/07/03 11:21:19;;;;;;;14.75;5.47;;;;;;;21.76;43.33;95564.19;4974210;28;20180;-86
2023/07/03 11:24:02;;;;;;;11.23;5.30;;;;;;;21.89;43.76;95567.72;4969208;28;20188;-86